sensor_id;sensor_type;location;lat;lon;timestamp;P1;durP1;ratioP1;P2;durP2;ratioP2
44842;SDS011;31884;52.538;13.820;2023-07-31T00:01:17;2.40;;;1.23;;
44842;SDS011;31884;52.538;13.820;2023-07-31T00:03:43;1.08;;;0.82;;
44842;SDS011;31884;52.538;13.820;2023-07-31T00:06:08;1.95;;;0.90;;
44842;SDS011;31884;52.538;13.820;2023-07-31T00:08:34;3.10;;;1.38;;
44842;SDS011;31884;52.538;13.820;2023-07-31T00:10:59;1.73;;;1.20;;
44842;SDS011;31884;52.538;13.820;2023-07-31T00:13:25;2.70;;;1.20;;
44842;SDS011;31884;52.538;13.820;2023-07-31T00:15:50;2.30;;;0.95;;
44842;SDS011;31884;52.538;13.820;2023-07-31T00:18:15;2.33;;;1.13;;
44842;SDS011;31884;52.538;13.820;2023-07-31T00:20:41;2.63;;;1.10;;
44842;SDS011;31884;52.538;13.820;2023-07-31T00:23:06;1.67;;;1.00;;
44842;SDS011;31884;52.538;13.820;2023-07-31T00:25:32;2.42;;;1.02;;
44842;SDS011;31884;52.538;13.820;2023-07-31T00:27:57;2.85;;;1.20;;
44842;SDS011;31884;52.538;13.820;2023-07-31T00:30:23;1.30;;;0.90;;
44842;SDS011;31884;52.538;13.820;2023-07-31T00:32:50;3.50;;;1.10;;
44842;SDS011;31884;52.538;13.820;2023-07-31T00:35:15;3.05;;;0.95;;
44842;SDS011;31884;52.538;13.820;2023-07-31T00:37:41;5.07;;;1.55;;
44842;SDS011;31884;52.538;13.820;2023-07-31T00:40:07;1.77;;;1.02;;
44842;SDS011;31884;52.538;13.820;2023-07-31T00:42:32;1.48;;;0.90;;
44842;SDS011;31884;52.538;13.820;2023-07-31T00:44:58;1.52;;;1.02;;
44842;SDS011;31884;52.538;13.820;2023-07-31T00:47:23;1.40;;;0.93;;
44842;SDS011;31884;52.538;13.820;2023-07-31T00:49:49;2.35;;;1.30;;
44842;SDS011;31884;52.538;13.820;2023-07-31T00:52:15;1.20;;;1.00;;
44842;SDS011;31884;52.538;13.820;2023-07-31T00:54:41;3.95;;;1.58;;
44842;SDS011;31884;52.538;13.820;2023-07-31T00:57:07;3.53;;;0.82;;
44842;SDS011;31884;52.538;13.820;2023-07-31T00:59:33;3.78;;;1.30;;
44842;SDS011;31884;52.538;13.820;2023-07-31T01:01:59;2.40;;;1.17;;
44842;SDS011;31884;52.538;13.820;2023-07-31T01:04:25;1.15;;;0.90;;
44842;SDS011;31884;52.538;13.820;2023-07-31T01:06:56;1.17;;;0.93;;
44842;SDS011;31884;52.538;13.820;2023-07-31T01:09:29;2.10;;;1.38;;
44842;SDS011;31884;52.538;13.820;2023-07-31T01:12:09;3.00;;;1.02;;
44842;SDS011;31884;52.538;13.820;2023-07-31T01:14:39;1.25;;;1.13;;
44842;SDS011;31884;52.538;13.820;2023-07-31T01:17:05;1.98;;;1.10;;
44842;SDS011;31884;52.538;13.820;2023-07-31T01:19:30;1.60;;;1.10;;
44842;SDS011;31884;52.538;13.820;2023-07-31T01:24:54;1.55;;;0.98;;
44842;SDS011;31884;52.538;13.820;2023-07-31T01:27:35;1.92;;;1.02;;
44842;SDS011;31884;52.538;13.820;2023-07-31T01:30:15;2.40;;;0.85;;
44842;SDS011;31884;52.538;13.820;2023-07-31T01:32:44;3.08;;;1.45;;
44842;SDS011;31884;52.538;13.820;2023-07-31T01:35:12;2.75;;;0.90;;
44842;SDS011;31884;52.538;13.820;2023-07-31T01:37:38;4.43;;;1.20;;
44842;SDS011;31884;52.538;13.820;2023-07-31T01:40:04;3.85;;;1.30;;
44842;SDS011;31884;52.538;13.820;2023-07-31T01:42:30;2.13;;;1.38;;
44842;SDS011;31884;52.538;13.820;2023-07-31T01:44:55;3.80;;;1.15;;
44842;SDS011;31884;52.538;13.820;2023-07-31T01:47:21;3.28;;;1.40;;
44842;SDS011;31884;52.538;13.820;2023-07-31T01:49:46;4.10;;;1.20;;
44842;SDS011;31884;52.538;13.820;2023-07-31T01:52:12;2.83;;;1.30;;
44842;SDS011;31884;52.538;13.820;2023-07-31T01:54:37;2.08;;;1.30;;
44842;SDS011;31884;52.538;13.820;2023-07-31T01:57:03;1.70;;;1.30;;
44842;SDS011;31884;52.538;13.820;2023-07-31T01:59:28;4.43;;;1.50;;
44842;SDS011;31884;52.538;13.820;2023-07-31T02:01:54;1.70;;;1.27;;
44842;SDS011;31884;52.538;13.820;2023-07-31T02:04:20;3.45;;;1.35;;
44842;SDS011;31884;52.538;13.820;2023-07-31T02:06:45;3.90;;;1.40;;
44842;SDS011;31884;52.538;13.820;2023-07-31T02:09:11;1.40;;;1.15;;
44842;SDS011;31884;52.538;13.820;2023-07-31T02:11:36;2.53;;;1.10;;
44842;SDS011;31884;52.538;13.820;2023-07-31T02:14:02;3.20;;;1.40;;
44842;SDS011;31884;52.538;13.820;2023-07-31T02:16:27;2.47;;;1.23;;
44842;SDS011;31884;52.538;13.820;2023-07-31T02:18:53;3.03;;;1.10;;
44842;SDS011;31884;52.538;13.820;2023-07-31T02:21:18;1.85;;;1.13;;
44842;SDS011;31884;52.538;13.820;2023-07-31T02:23:43;2.13;;;1.20;;
44842;SDS011;31884;52.538;13.820;2023-07-31T02:26:09;2.72;;;1.50;;
44842;SDS011;31884;52.538;13.820;2023-07-31T02:28:34;1.27;;;1.15;;
44842;SDS011;31884;52.538;13.820;2023-07-31T02:31:00;1.70;;;1.08;;
44842;SDS011;31884;52.538;13.820;2023-07-31T02:33:25;2.80;;;1.70;;
44842;SDS011;31884;52.538;13.820;2023-07-31T02:35:51;2.58;;;1.17;;
44842;SDS011;31884;52.538;13.820;2023-07-31T02:38:17;2.65;;;1.40;;
44842;SDS011;31884;52.538;13.820;2023-07-31T02:40:42;2.25;;;1.40;;
44842;SDS011;31884;52.538;13.820;2023-07-31T02:43:08;4.22;;;1.55;;
44842;SDS011;31884;52.538;13.820;2023-07-31T02:45:33;2.17;;;1.40;;
44842;SDS011;31884;52.538;13.820;2023-07-31T02:47:59;3.45;;;1.40;;
44842;SDS011;31884;52.538;13.820;2023-07-31T02:50:25;2.08;;;1.50;;
44842;SDS011;31884;52.538;13.820;2023-07-31T02:52:52;3.20;;;1.48;;
44842;SDS011;31884;52.538;13.820;2023-07-31T02:55:18;2.63;;;1.20;;
44842;SDS011;31884;52.538;13.820;2023-07-31T02:57:43;3.28;;;1.65;;
44842;SDS011;31884;52.538;13.820;2023-07-31T03:00:09;1.90;;;1.52;;
44842;SDS011;31884;52.538;13.820;2023-07-31T03:02:34;3.05;;;1.60;;
44842;SDS011;31884;52.538;13.820;2023-07-31T03:05:00;4.72;;;1.55;;
44842;SDS011;31884;52.538;13.820;2023-07-31T03:07:25;1.88;;;1.33;;
44842;SDS011;31884;52.538;13.820;2023-07-31T03:09:51;1.52;;;1.23;;
44842;SDS011;31884;52.538;13.820;2023-07-31T03:12:17;1.75;;;1.65;;
44842;SDS011;31884;52.538;13.820;2023-07-31T03:14:42;3.40;;;1.77;;
44842;SDS011;31884;52.538;13.820;2023-07-31T03:17:08;2.97;;;1.60;;
44842;SDS011;31884;52.538;13.820;2023-07-31T03:19:33;2.08;;;1.30;;
44842;SDS011;31884;52.538;13.820;2023-07-31T03:21:59;2.65;;;1.50;;
44842;SDS011;31884;52.538;13.820;2023-07-31T03:24:25;2.90;;;1.58;;
44842;SDS011;31884;52.538;13.820;2023-07-31T03:26:51;2.67;;;1.50;;
44842;SDS011;31884;52.538;13.820;2023-07-31T03:29:16;1.63;;;1.20;;
44842;SDS011;31884;52.538;13.820;2023-07-31T03:31:42;2.53;;;1.67;;
44842;SDS011;31884;52.538;13.820;2023-07-31T03:34:07;1.60;;;1.50;;
44842;SDS011;31884;52.538;13.820;2023-07-31T03:36:33;3.15;;;1.90;;
44842;SDS011;31884;52.538;13.820;2023-07-31T03:38:58;3.85;;;2.03;;
44842;SDS011;31884;52.538;13.820;2023-07-31T03:41:24;4.82;;;2.28;;
44842;SDS011;31884;52.538;13.820;2023-07-31T03:43:50;5.35;;;2.10;;
44842;SDS011;31884;52.538;13.820;2023-07-31T03:46:17;3.78;;;2.30;;
44842;SDS011;31884;52.538;13.820;2023-07-31T03:48:42;5.60;;;3.17;;
44842;SDS011;31884;52.538;13.820;2023-07-31T03:51:08;3.10;;;2.45;;
44842;SDS011;31884;52.538;13.820;2023-07-31T03:53:33;4.18;;;2.70;;
44842;SDS011;31884;52.538;13.820;2023-07-31T03:55:59;5.03;;;3.03;;
44842;SDS011;31884;52.538;13.820;2023-07-31T03:58:24;5.63;;;2.60;;
44842;SDS011;31884;52.538;13.820;2023-07-31T04:00:50;7.20;;;2.78;;
44842;SDS011;31884;52.538;13.820;2023-07-31T04:03:15;5.25;;;3.08;;
44842;SDS011;31884;52.538;13.820;2023-07-31T04:05:41;4.38;;;2.40;;
44842;SDS011;31884;52.538;13.820;2023-07-31T04:08:06;8.75;;;3.38;;
44842;SDS011;31884;52.538;13.820;2023-07-31T04:10:32;6.55;;;3.35;;
44842;SDS011;31884;52.538;13.820;2023-07-31T04:12:58;2.67;;;2.20;;
44842;SDS011;31884;52.538;13.820;2023-07-31T04:15:24;4.47;;;2.47;;
44842;SDS011;31884;52.538;13.820;2023-07-31T04:17:50;4.95;;;2.45;;
44842;SDS011;31884;52.538;13.820;2023-07-31T04:20:15;6.85;;;2.50;;
44842;SDS011;31884;52.538;13.820;2023-07-31T04:22:41;5.97;;;2.65;;
44842;SDS011;31884;52.538;13.820;2023-07-31T04:25:06;4.15;;;2.78;;
44842;SDS011;31884;52.538;13.820;2023-07-31T04:27:32;8.55;;;2.75;;
44842;SDS011;31884;52.538;13.820;2023-07-31T04:29:57;3.70;;;2.70;;
44842;SDS011;31884;52.538;13.820;2023-07-31T04:32:23;4.45;;;3.05;;
44842;SDS011;31884;52.538;13.820;2023-07-31T04:34:48;4.65;;;2.72;;
44842;SDS011;31884;52.538;13.820;2023-07-31T04:37:14;2.83;;;2.33;;
44842;SDS011;31884;52.538;13.820;2023-07-31T04:39:39;4.32;;;2.72;;
44842;SDS011;31884;52.538;13.820;2023-07-31T04:42:05;6.25;;;2.40;;
44842;SDS011;31884;52.538;13.820;2023-07-31T04:44:30;5.95;;;2.67;;
44842;SDS011;31884;52.538;13.820;2023-07-31T04:46:56;4.00;;;2.17;;
44842;SDS011;31884;52.538;13.820;2023-07-31T04:49:21;5.55;;;2.40;;
44842;SDS011;31884;52.538;13.820;2023-07-31T04:51:47;6.10;;;2.65;;
44842;SDS011;31884;52.538;13.820;2023-07-31T04:54:12;5.28;;;2.50;;
44842;SDS011;31884;52.538;13.820;2023-07-31T04:56:40;6.43;;;2.10;;
44842;SDS011;31884;52.538;13.820;2023-07-31T04:59:06;3.45;;;2.00;;
44842;SDS011;31884;52.538;13.820;2023-07-31T05:01:31;4.70;;;2.50;;
44842;SDS011;31884;52.538;13.820;2023-07-31T05:03:57;5.00;;;2.72;;
44842;SDS011;31884;52.538;13.820;2023-07-31T05:06:22;5.32;;;2.75;;
44842;SDS011;31884;52.538;13.820;2023-07-31T05:08:48;5.57;;;2.40;;
44842;SDS011;31884;52.538;13.820;2023-07-31T05:11:13;5.50;;;2.63;;
44842;SDS011;31884;52.538;13.820;2023-07-31T05:13:39;8.00;;;2.65;;
44842;SDS011;31884;52.538;13.820;2023-07-31T05:16:04;2.88;;;2.20;;
44842;SDS011;31884;52.538;13.820;2023-07-31T05:18:30;5.63;;;2.40;;
44842;SDS011;31884;52.538;13.820;2023-07-31T05:20:55;5.07;;;2.55;;
44842;SDS011;31884;52.538;13.820;2023-07-31T05:23:21;3.67;;;2.38;;
44842;SDS011;31884;52.538;13.820;2023-07-31T05:25:46;3.40;;;2.03;;
44842;SDS011;31884;52.538;13.820;2023-07-31T05:28:12;4.45;;;2.03;;
44842;SDS011;31884;52.538;13.820;2023-07-31T05:30:38;5.18;;;2.13;;
44842;SDS011;31884;52.538;13.820;2023-07-31T05:33:03;4.03;;;2.20;;
44842;SDS011;31884;52.538;13.820;2023-07-31T05:35:29;3.40;;;2.33;;
44842;SDS011;31884;52.538;13.820;2023-07-31T05:37:54;3.65;;;2.15;;
44842;SDS011;31884;52.538;13.820;2023-07-31T05:40:20;3.70;;;2.40;;
44842;SDS011;31884;52.538;13.820;2023-07-31T05:42:45;5.72;;;2.22;;
44842;SDS011;31884;52.538;13.820;2023-07-31T05:45:11;3.65;;;2.20;;
44842;SDS011;31884;52.538;13.820;2023-07-31T05:47:37;5.03;;;2.53;;
44842;SDS011;31884;52.538;13.820;2023-07-31T05:50:03;4.22;;;2.30;;
44842;SDS011;31884;52.538;13.820;2023-07-31T05:52:29;4.03;;;2.15;;
44842;SDS011;31884;52.538;13.820;2023-07-31T05:54:54;5.30;;;2.17;;
44842;SDS011;31884;52.538;13.820;2023-07-31T05:57:20;5.28;;;2.03;;
44842;SDS011;31884;52.538;13.820;2023-07-31T05:59:45;4.70;;;1.90;;
44842;SDS011;31884;52.538;13.820;2023-07-31T06:02:11;3.88;;;2.70;;
44842;SDS011;31884;52.538;13.820;2023-07-31T06:04:36;3.80;;;2.17;;
44842;SDS011;31884;52.538;13.820;2023-07-31T06:07:02;3.25;;;1.80;;
44842;SDS011;31884;52.538;13.820;2023-07-31T06:09:28;3.92;;;1.80;;
44842;SDS011;31884;52.538;13.820;2023-07-31T06:11:54;3.63;;;2.13;;
44842;SDS011;31884;52.538;13.820;2023-07-31T06:14:19;4.40;;;2.00;;
44842;SDS011;31884;52.538;13.820;2023-07-31T06:16:45;2.30;;;1.80;;
44842;SDS011;31884;52.538;13.820;2023-07-31T06:19:10;4.47;;;1.90;;
44842;SDS011;31884;52.538;13.820;2023-07-31T06:21:36;4.07;;;1.80;;
44842;SDS011;31884;52.538;13.820;2023-07-31T06:24:02;3.65;;;1.85;;
44842;SDS011;31884;52.538;13.820;2023-07-31T06:26:28;4.55;;;2.13;;
44842;SDS011;31884;52.538;13.820;2023-07-31T06:28:54;3.63;;;1.77;;
44842;SDS011;31884;52.538;13.820;2023-07-31T06:31:20;4.25;;;1.50;;
44842;SDS011;31884;52.538;13.820;2023-07-31T06:33:48;2.40;;;1.90;;
44842;SDS011;31884;52.538;13.820;2023-07-31T06:36:15;6.97;;;2.38;;
44842;SDS011;31884;52.538;13.820;2023-07-31T06:38:40;3.75;;;2.05;;
44842;SDS011;31884;52.538;13.820;2023-07-31T06:41:06;5.15;;;1.83;;
44842;SDS011;31884;52.538;13.820;2023-07-31T06:43:31;5.38;;;1.90;;
44842;SDS011;31884;52.538;13.820;2023-07-31T06:45:57;3.47;;;1.75;;
44842;SDS011;31884;52.538;13.820;2023-07-31T06:48:24;2.85;;;2.03;;
44842;SDS011;31884;52.538;13.820;2023-07-31T06:50:50;3.33;;;1.90;;
44842;SDS011;31884;52.538;13.820;2023-07-31T06:53:15;2.85;;;1.90;;
44842;SDS011;31884;52.538;13.820;2023-07-31T06:55:41;3.83;;;2.08;;
44842;SDS011;31884;52.538;13.820;2023-07-31T06:58:06;4.13;;;2.25;;
44842;SDS011;31884;52.538;13.820;2023-07-31T07:00:32;3.35;;;2.08;;
44842;SDS011;31884;52.538;13.820;2023-07-31T07:02:57;3.15;;;2.13;;
44842;SDS011;31884;52.538;13.820;2023-07-31T07:05:23;5.10;;;2.13;;
44842;SDS011;31884;52.538;13.820;2023-07-31T07:07:49;2.20;;;1.80;;
44842;SDS011;31884;52.538;13.820;2023-07-31T07:10:16;5.32;;;2.28;;
44842;SDS011;31884;52.538;13.820;2023-07-31T07:12:41;2.60;;;1.58;;
44842;SDS011;31884;52.538;13.820;2023-07-31T07:15:07;4.53;;;1.90;;
44842;SDS011;31884;52.538;13.820;2023-07-31T07:17:33;2.80;;;1.65;;
44842;SDS011;31884;52.538;13.820;2023-07-31T07:19:59;2.80;;;1.90;;
44842;SDS011;31884;52.538;13.820;2023-07-31T07:22:25;6.10;;;2.30;;
44842;SDS011;31884;52.538;13.820;2023-07-31T07:24:51;4.18;;;1.83;;
44842;SDS011;31884;52.538;13.820;2023-07-31T07:27:17;3.15;;;1.50;;
44842;SDS011;31884;52.538;13.820;2023-07-31T07:29:43;3.63;;;2.03;;
44842;SDS011;31884;52.538;13.820;2023-07-31T07:32:10;4.28;;;1.90;;
44842;SDS011;31884;52.538;13.820;2023-07-31T07:34:36;2.42;;;1.75;;
44842;SDS011;31884;52.538;13.820;2023-07-31T07:37:02;2.67;;;1.77;;
44842;SDS011;31884;52.538;13.820;2023-07-31T07:39:27;4.40;;;2.30;;
44842;SDS011;31884;52.538;13.820;2023-07-31T07:41:53;3.78;;;2.08;;
44842;SDS011;31884;52.538;13.820;2023-07-31T07:44:19;5.38;;;2.30;;
44842;SDS011;31884;52.538;13.820;2023-07-31T07:46:44;3.67;;;1.90;;
44842;SDS011;31884;52.538;13.820;2023-07-31T07:49:10;3.00;;;2.13;;
44842;SDS011;31884;52.538;13.820;2023-07-31T07:51:35;3.85;;;2.15;;
44842;SDS011;31884;52.538;13.820;2023-07-31T07:54:01;4.35;;;2.00;;
44842;SDS011;31884;52.538;13.820;2023-07-31T07:56:27;4.43;;;2.00;;
44842;SDS011;31884;52.538;13.820;2023-07-31T07:58:53;4.68;;;1.92;;
44842;SDS011;31884;52.538;13.820;2023-07-31T08:01:19;2.30;;;1.83;;
44842;SDS011;31884;52.538;13.820;2023-07-31T08:03:44;2.45;;;1.75;;
44842;SDS011;31884;52.538;13.820;2023-07-31T08:06:10;5.35;;;2.25;;
44842;SDS011;31884;52.538;13.820;2023-07-31T08:08:36;3.20;;;1.95;;
44842;SDS011;31884;52.538;13.820;2023-07-31T08:11:02;1.92;;;1.52;;
44842;SDS011;31884;52.538;13.820;2023-07-31T08:13:28;5.22;;;1.90;;
44842;SDS011;31884;52.538;13.820;2023-07-31T08:15:53;2.22;;;1.77;;
44842;SDS011;31884;52.538;13.820;2023-07-31T08:18:19;2.88;;;1.73;;
44842;SDS011;31884;52.538;13.820;2023-07-31T08:20:45;2.55;;;1.60;;
44842;SDS011;31884;52.538;13.820;2023-07-31T08:23:10;2.63;;;1.67;;
44842;SDS011;31884;52.538;13.820;2023-07-31T08:25:36;2.08;;;1.55;;
44842;SDS011;31884;52.538;13.820;2023-07-31T08:28:02;3.60;;;2.08;;
44842;SDS011;31884;52.538;13.820;2023-07-31T08:30:28;5.97;;;2.35;;
44842;SDS011;31884;52.538;13.820;2023-07-31T08:32:55;7.10;;;2.15;;
44842;SDS011;31884;52.538;13.820;2023-07-31T08:35:20;2.95;;;1.77;;
44842;SDS011;31884;52.538;13.820;2023-07-31T08:37:46;3.10;;;1.73;;
44842;SDS011;31884;52.538;13.820;2023-07-31T08:40:11;4.63;;;1.88;;
44842;SDS011;31884;52.538;13.820;2023-07-31T08:42:43;2.58;;;1.85;;
44842;SDS011;31884;52.538;13.820;2023-07-31T08:45:11;5.05;;;2.20;;
44842;SDS011;31884;52.538;13.820;2023-07-31T08:47:39;3.78;;;1.80;;
44842;SDS011;31884;52.538;13.820;2023-07-31T08:50:07;5.32;;;1.65;;
44842;SDS011;31884;52.538;13.820;2023-07-31T08:52:33;2.10;;;1.58;;
44842;SDS011;31884;52.538;13.820;2023-07-31T08:54:59;3.92;;;1.60;;
44842;SDS011;31884;52.538;13.820;2023-07-31T08:57:24;3.63;;;2.05;;
44842;SDS011;31884;52.538;13.820;2023-07-31T08:59:50;2.33;;;1.85;;
44842;SDS011;31884;52.538;13.820;2023-07-31T09:02:16;5.00;;;1.77;;
44842;SDS011;31884;52.538;13.820;2023-07-31T09:04:43;2.67;;;1.38;;
44842;SDS011;31884;52.538;13.820;2023-07-31T09:07:09;8.98;;;1.90;;
44842;SDS011;31884;52.538;13.820;2023-07-31T09:09:38;3.92;;;1.40;;
44842;SDS011;31884;52.538;13.820;2023-07-31T09:12:03;3.70;;;1.85;;
44842;SDS011;31884;52.538;13.820;2023-07-31T09:14:30;3.22;;;1.50;;
44842;SDS011;31884;52.538;13.820;2023-07-31T09:16:56;3.80;;;1.20;;
44842;SDS011;31884;52.538;13.820;2023-07-31T09:19:25;1.85;;;1.23;;
44842;SDS011;31884;52.538;13.820;2023-07-31T09:21:52;2.95;;;1.50;;
44842;SDS011;31884;52.538;13.820;2023-07-31T09:24:30;4.55;;;2.00;;
44842;SDS011;31884;52.538;13.820;2023-07-31T09:26:57;1.67;;;1.30;;
44842;SDS011;31884;52.538;13.820;2023-07-31T09:29:24;2.53;;;1.50;;
44842;SDS011;31884;52.538;13.820;2023-07-31T09:31:51;2.15;;;1.60;;
44842;SDS011;31884;52.538;13.820;2023-07-31T09:34:17;2.90;;;1.63;;
44842;SDS011;31884;52.538;13.820;2023-07-31T09:36:44;1.52;;;1.42;;
44842;SDS011;31884;52.538;13.820;2023-07-31T09:39:11;2.75;;;1.30;;
44842;SDS011;31884;52.538;13.820;2023-07-31T09:41:38;2.10;;;1.38;;
44842;SDS011;31884;52.538;13.820;2023-07-31T09:44:05;3.05;;;1.55;;
44842;SDS011;31884;52.538;13.820;2023-07-31T09:46:31;1.10;;;1.00;;
44842;SDS011;31884;52.538;13.820;2023-07-31T09:49:12;2.42;;;1.38;;
44842;SDS011;31884;52.538;13.820;2023-07-31T09:51:39;2.47;;;1.23;;
44842;SDS011;31884;52.538;13.820;2023-07-31T09:54:08;3.47;;;1.27;;
44842;SDS011;31884;52.538;13.820;2023-07-31T09:56:36;3.67;;;1.20;;
44842;SDS011;31884;52.538;13.820;2023-07-31T09:59:14;3.38;;;1.20;;
44842;SDS011;31884;52.538;13.820;2023-07-31T10:01:41;1.30;;;1.02;;
44842;SDS011;31884;52.538;13.820;2023-07-31T10:04:09;2.10;;;1.20;;
44842;SDS011;31884;52.538;13.820;2023-07-31T10:06:35;2.03;;;1.00;;
44842;SDS011;31884;52.538;13.820;2023-07-31T10:09:03;1.40;;;1.10;;
44842;SDS011;31884;52.538;13.820;2023-07-31T10:11:32;1.17;;;1.00;;
44842;SDS011;31884;52.538;13.820;2023-07-31T10:14:04;1.63;;;0.85;;
44842;SDS011;31884;52.538;13.820;2023-07-31T10:16:30;1.30;;;0.75;;
44842;SDS011;31884;52.538;13.820;2023-07-31T10:18:56;1.13;;;0.93;;
44842;SDS011;31884;52.538;13.820;2023-07-31T10:21:23;1.10;;;0.60;;
44842;SDS011;31884;52.538;13.820;2023-07-31T10:23:48;0.68;;;0.68;;
44842;SDS011;31884;52.538;13.820;2023-07-31T10:26:16;1.58;;;0.80;;
44842;SDS011;31884;52.538;13.820;2023-07-31T10:28:44;1.40;;;0.95;;
44842;SDS011;31884;52.538;13.820;2023-07-31T10:31:11;1.02;;;0.90;;
44842;SDS011;31884;52.538;13.820;2023-07-31T10:33:38;2.08;;;1.10;;
44842;SDS011;31884;52.538;13.820;2023-07-31T10:36:19;1.92;;;1.33;;
44842;SDS011;31884;52.538;13.820;2023-07-31T10:38:46;2.17;;;1.30;;
44842;SDS011;31884;52.538;13.820;2023-07-31T10:41:14;2.03;;;1.30;;
44842;SDS011;31884;52.538;13.820;2023-07-31T10:43:39;1.48;;;1.25;;
44842;SDS011;31884;52.538;13.820;2023-07-31T10:46:11;2.20;;;1.40;;
44842;SDS011;31884;52.538;13.820;2023-07-31T10:48:38;3.83;;;1.90;;
44842;SDS011;31884;52.538;13.820;2023-07-31T10:51:07;2.40;;;1.42;;
44842;SDS011;31884;52.538;13.820;2023-07-31T10:53:34;3.88;;;1.88;;
44842;SDS011;31884;52.538;13.820;2023-07-31T10:56:01;3.53;;;1.90;;
44842;SDS011;31884;52.538;13.820;2023-07-31T10:58:33;3.90;;;2.17;;
44842;SDS011;31884;52.538;13.820;2023-07-31T11:01:00;4.50;;;2.40;;
44842;SDS011;31884;52.538;13.820;2023-07-31T11:06:19;2.75;;;1.90;;
44842;SDS011;31884;52.538;13.820;2023-07-31T11:08:45;2.53;;;1.90;;
44842;SDS011;31884;52.538;13.820;2023-07-31T11:11:12;3.40;;;1.98;;
44842;SDS011;31884;52.538;13.820;2023-07-31T11:13:46;3.15;;;2.08;;
44842;SDS011;31884;52.538;13.820;2023-07-31T11:16:14;5.55;;;2.60;;
44842;SDS011;31884;52.538;13.820;2023-07-31T11:18:41;3.58;;;2.00;;
44842;SDS011;31884;52.538;13.820;2023-07-31T11:21:13;3.22;;;2.00;;
44842;SDS011;31884;52.538;13.820;2023-07-31T11:23:40;3.78;;;2.20;;
44842;SDS011;31884;52.538;13.820;2023-07-31T11:26:06;3.05;;;2.00;;
44842;SDS011;31884;52.538;13.820;2023-07-31T11:28:32;4.20;;;2.10;;
44842;SDS011;31884;52.538;13.820;2023-07-31T11:30:59;2.80;;;2.10;;
44842;SDS011;31884;52.538;13.820;2023-07-31T11:33:25;4.55;;;2.22;;
44842;SDS011;31884;52.538;13.820;2023-07-31T11:35:51;4.10;;;1.98;;
44842;SDS011;31884;52.538;13.820;2023-07-31T11:38:24;4.65;;;2.60;;
44842;SDS011;31884;52.538;13.820;2023-07-31T11:40:51;4.20;;;2.20;;
44842;SDS011;31884;52.538;13.820;2023-07-31T11:43:18;3.95;;;2.40;;
44842;SDS011;31884;52.538;13.820;2023-07-31T11:45:45;5.07;;;2.15;;
44842;SDS011;31884;52.538;13.820;2023-07-31T11:48:19;2.90;;;2.15;;
44842;SDS011;31884;52.538;13.820;2023-07-31T11:50:46;2.65;;;2.22;;
44842;SDS011;31884;52.538;13.820;2023-07-31T11:53:14;2.50;;;2.10;;
44842;SDS011;31884;52.538;13.820;2023-07-31T11:55:42;4.03;;;2.75;;
44842;SDS011;31884;52.538;13.820;2023-07-31T11:58:08;3.38;;;2.20;;
44842;SDS011;31884;52.538;13.820;2023-07-31T12:00:35;4.07;;;2.22;;
44842;SDS011;31884;52.538;13.820;2023-07-31T12:03:00;3.08;;;2.40;;
44842;SDS011;31884;52.538;13.820;2023-07-31T12:05:26;2.83;;;2.20;;
44842;SDS011;31884;52.538;13.820;2023-07-31T12:07:53;5.45;;;2.90;;
44842;SDS011;31884;52.538;13.820;2023-07-31T12:10:23;4.18;;;2.30;;
44842;SDS011;31884;52.538;13.820;2023-07-31T12:12:58;3.90;;;2.10;;
44842;SDS011;31884;52.538;13.820;2023-07-31T12:15:28;4.93;;;2.53;;
44842;SDS011;31884;52.538;13.820;2023-07-31T12:17:56;3.17;;;2.00;;
44842;SDS011;31884;52.538;13.820;2023-07-31T12:20:21;2.88;;;1.90;;
44842;SDS011;31884;52.538;13.820;2023-07-31T12:22:47;2.97;;;2.10;;
44842;SDS011;31884;52.538;13.820;2023-07-31T12:25:15;4.47;;;2.30;;
44842;SDS011;31884;52.538;13.820;2023-07-31T12:27:44;2.55;;;2.20;;
44842;SDS011;31884;52.538;13.820;2023-07-31T12:30:26;3.20;;;1.95;;
44842;SDS011;31884;52.538;13.820;2023-07-31T12:32:57;3.72;;;2.00;;
44842;SDS011;31884;52.538;13.820;2023-07-31T12:35:22;4.35;;;2.33;;
44842;SDS011;31884;52.538;13.820;2023-07-31T12:37:48;2.30;;;1.83;;
44842;SDS011;31884;52.538;13.820;2023-07-31T12:40:13;3.00;;;2.28;;
44842;SDS011;31884;52.538;13.820;2023-07-31T12:42:40;3.05;;;2.22;;
44842;SDS011;31884;52.538;13.820;2023-07-31T12:45:06;3.13;;;2.13;;
44842;SDS011;31884;52.538;13.820;2023-07-31T12:47:32;3.85;;;2.80;;
44842;SDS011;31884;52.538;13.820;2023-07-31T12:49:58;3.47;;;2.17;;
44842;SDS011;31884;52.538;13.820;2023-07-31T12:52:23;3.45;;;2.38;;
44842;SDS011;31884;52.538;13.820;2023-07-31T12:54:49;2.90;;;2.10;;
44842;SDS011;31884;52.538;13.820;2023-07-31T12:57:14;5.18;;;2.50;;
44842;SDS011;31884;52.538;13.820;2023-07-31T12:59:39;4.80;;;2.53;;
44842;SDS011;31884;52.538;13.820;2023-07-31T13:02:05;4.90;;;2.10;;
44842;SDS011;31884;52.538;13.820;2023-07-31T13:04:31;3.70;;;2.38;;
44842;SDS011;31884;52.538;13.820;2023-07-31T13:06:56;4.28;;;2.63;;
44842;SDS011;31884;52.538;13.820;2023-07-31T13:09:21;2.92;;;2.10;;
44842;SDS011;31884;52.538;13.820;2023-07-31T13:11:47;3.80;;;2.00;;
44842;SDS011;31884;52.538;13.820;2023-07-31T13:14:12;3.60;;;2.30;;
44842;SDS011;31884;52.538;13.820;2023-07-31T13:16:38;3.15;;;2.00;;
44842;SDS011;31884;52.538;13.820;2023-07-31T13:19:03;3.45;;;1.80;;
44842;SDS011;31884;52.538;13.820;2023-07-31T13:21:29;4.05;;;2.45;;
44842;SDS011;31884;52.538;13.820;2023-07-31T13:23:54;3.60;;;1.75;;
44842;SDS011;31884;52.538;13.820;2023-07-31T13:26:22;2.88;;;1.65;;
44842;SDS011;31884;52.538;13.820;2023-07-31T13:28:48;2.10;;;1.85;;
44842;SDS011;31884;52.538;13.820;2023-07-31T13:31:13;2.92;;;2.00;;
44842;SDS011;31884;52.538;13.820;2023-07-31T13:33:39;2.10;;;1.67;;
44842;SDS011;31884;52.538;13.820;2023-07-31T13:36:04;2.75;;;1.85;;
44842;SDS011;31884;52.538;13.820;2023-07-31T13:38:30;3.08;;;1.80;;
44842;SDS011;31884;52.538;13.820;2023-07-31T13:40:56;2.95;;;1.88;;
44842;SDS011;31884;52.538;13.820;2023-07-31T13:43:21;5.95;;;2.00;;
44842;SDS011;31884;52.538;13.820;2023-07-31T13:45:47;3.63;;;2.35;;
44842;SDS011;31884;52.538;13.820;2023-07-31T13:48:12;3.17;;;2.00;;
44842;SDS011;31884;52.538;13.820;2023-07-31T13:50:38;3.53;;;2.30;;
44842;SDS011;31884;52.538;13.820;2023-07-31T13:53:03;5.10;;;2.65;;
44842;SDS011;31884;52.538;13.820;2023-07-31T13:55:28;2.85;;;1.88;;
44842;SDS011;31884;52.538;13.820;2023-07-31T13:57:54;3.80;;;2.00;;
44842;SDS011;31884;52.538;13.820;2023-07-31T14:00:19;4.80;;;2.05;;
44842;SDS011;31884;52.538;13.820;2023-07-31T14:02:45;2.92;;;2.05;;
44842;SDS011;31884;52.538;13.820;2023-07-31T14:05:10;3.22;;;1.90;;
44842;SDS011;31884;52.538;13.820;2023-07-31T14:07:36;2.38;;;1.85;;
44842;SDS011;31884;52.538;13.820;2023-07-31T14:10:01;2.40;;;2.00;;
44842;SDS011;31884;52.538;13.820;2023-07-31T14:12:29;4.85;;;2.40;;
44842;SDS011;31884;52.538;13.820;2023-07-31T14:14:54;2.45;;;2.25;;
44842;SDS011;31884;52.538;13.820;2023-07-31T14:17:19;5.18;;;2.50;;
44842;SDS011;31884;52.538;13.820;2023-07-31T14:19:45;4.53;;;2.92;;
44842;SDS011;31884;52.538;13.820;2023-07-31T14:22:10;3.05;;;2.40;;
44842;SDS011;31884;52.538;13.820;2023-07-31T14:24:36;4.38;;;2.63;;
44842;SDS011;31884;52.538;13.820;2023-07-31T14:27:02;4.70;;;2.92;;
44842;SDS011;31884;52.538;13.820;2023-07-31T14:29:27;5.13;;;2.85;;
44842;SDS011;31884;52.538;13.820;2023-07-31T14:31:54;4.60;;;2.22;;
44842;SDS011;31884;52.538;13.820;2023-07-31T14:34:20;4.35;;;2.55;;